Accueil
METAR-TAF:

METAR-TAF

Aéroports :

Cranwell, Angleterre

latitude: 53-02N, longitude: 000-30W, altitude: 67 m

Observation

Le bulletin a été fait il y a 20 minutes, à 18:50 UTC
Vent 9 kt de nord-ouest
Température 9°C
Humidité 61%
Pression 1032 hPa
Visibilité 10 km ou plus

METAR: EGYD 261850Z AUTO 31009KT 9999 // SCT041/// 09/02 Q1032

Heure: 19:10 (19:10 UTC)

Prévision

Le bulletin a été fait il y a 5 heures et 54 minutes, à 13:16 UTC
Prévision valable du 26 à 15 UTC au 26 à 19 UTC
Vent 10 kt de ouest
Visibilité 10 km ou plus
Nuages fragmentés à une hauteur de 3500 ft

TAF: EGYD 261316Z 2615/2619 27010KT 9999 BKN035

Observations et prévisions météorologiques de plus de 4000 aéroports (messages METAR et TAF).

Les stations disponibles sont représentées par des disques jaunes et rouges sur la carte.

Passer la souris dessus pour voir le nom de la station.

Cliquer dessus pour voir les observations et prévisions météorologiques.

Pour changer de carte: cliquez sur les boutons verts avec une croix noire pour zoomer, sur le bouton vert avec un tiret pour effectuer un zoom arrière, ou sur les flèches vertes pour les cartes adjacentes.


METAR-TAF: